Monday, June 27, 2016, 10:51 AM EDT

KOFP, Hanover County Municipal

Location: Ashland, VA, United States Lat: 37.7
Local Time: 10:51 AM EDT (14:51 GMT) Lon: -77.433
Time Zone: US/Eastern Elev: 203 ft

Show me the last for .
Show Decoded

2016-06-27 09:54 METAR KOFP 271354Z AUTO 20006KT 10SM CLR 25/18 A3013 RMK AO2 SLP199 T02500178 =
2016-06-27 08:54 METAR KOFP 271254Z AUTO 20007KT 10SM CLR 23/18 A3013 RMK AO2 SLP201 T02330178 =
2016-06-27 07:54 METAR KOFP 271154Z AUTO 19004KT 8SM CLR 21/18 A3014 RMK AO2 SLP203 T02060183
                 10206 20167 53002 =
2016-06-27 06:54 METAR KOFP 271054Z AUTO 00000KT 4SM BR CLR 18/17 A3013 RMK AO2 SLP201 T01830172
                 =
2016-06-27 05:54 METAR KOFP 270954Z AUTO VRB03KT 3SM BR CLR 18/17 A3013 RMK AO2 SLP200 T01780167
                 =
2016-06-27 04:54 METAR KOFP 270854Z AUTO 00000KT 4SM BR CLR 18/17 A3013 RMK AO2 SLP201 T01780167
                 56012 =
2016-06-27 03:54 METAR KOFP 270754Z AUTO 00000KT 6SM BR CLR 18/17 A3013 RMK AO2 SLP202 T01830167
                 =
2016-06-27 02:54 METAR KOFP 270654Z AUTO 00000KT 8SM CLR 18/17 A3014 RMK AO2 SLP204 T01830167 =
2016-06-27 01:54 METAR KOFP 270554Z AUTO 00000KT 7SM CLR 18/16 A3016 RMK AO2 SLP213 T01780161
                 10239 20172 58004 =
2016-06-27 00:54 METAR KOFP 270454Z AUTO 12003KT 10SM CLR 18/16 A3018 RMK AO2 SLP218 T01830161
                 402890150 =
2016-06-26 23:54 METAR KOFP 270354Z AUTO 00000KT 10SM CLR 18/17 A3019 RMK AO2 SLP220 T01830167 =
2016-06-26 22:54 METAR KOFP 270254Z AUTO VRB04KT 10SM CLR 21/17 A3018 RMK AO2 SLP217 T02060167
                 53011 =
2016-06-26 21:54 METAR KOFP 270154Z AUTO VRB03KT 10SM CLR 21/17 A3015 RMK AO2 SLP207 T02110167 =
2016-06-26 20:54 METAR KOFP 270054Z AUTO 00000KT 10SM CLR 21/17 A3013 RMK AO2 SLP201 T02060167 =
2016-06-26 19:54 METAR KOFP 262354Z AUTO 00000KT 10SM CLR 24/17 A3014 RMK AO2 SLP205 T02390172
                 10289 20239 56013 =
2016-06-26 18:54 METAR KOFP 262254Z AUTO 12004KT 10SM CLR 27/16 A3015 RMK AO2 SLP209 T02670161 =
2016-06-26 17:54 METAR KOFP 262154Z AUTO 09003KT 10SM CLR 28/13 A3017 RMK AO2 SLP214 T02780133 =
2016-06-26 16:54 METAR KOFP 262054Z AUTO VRB03KT 10SM CLR 28/14 A3018 RMK AO2 SLP218 T02830139
                 58017 =
2016-06-26 15:54 METAR KOFP 261954Z AUTO VRB06KT 10SM CLR 28/13 A3019 RMK AO2 SLP222 T02830128 =
2016-06-26 14:54 METAR KOFP 261854Z AUTO VRB06KT 10SM CLR 28/14 A3022 RMK AO2 SLP232 T02830144 =
2016-06-26 13:54 METAR KOFP 261754Z AUTO VRB03KT 10SM CLR 28/15 A3023 RMK AO2 SLP235 T02780150
                 10278 20189 58005 =
2016-06-26 12:54 METAR KOFP 261654Z AUTO 00000KT 10SM CLR 27/16 A3024 RMK AO2 SLP238 T02670156 =
2016-06-26 11:54 METAR KOFP 261554Z AUTO VRB05KT 10SM CLR 26/16 A3025 RMK AO2 SLP240 T02560161 =
2016-06-26 10:54 METAR KOFP 261454Z AUTO 00000KT 10SM CLR 24/16 A3025 RMK AO2 SLP240 T02440161
                 51003 =

Support USWX by starting your Amazon purchase here.